Aegean Viii — SXKO — position and weather

sailwx.info

Track history (hours):
 
Tides and Currents Weather Stations Pressure Air Temp Water Temp Dewpoint Dewpoint Depression Visibility Wind Speed Wind Dir Waves Ship Positions

Aegean Viii

Last reported at 2016-Feb-14 20:33 UTC. Time now 2016-Feb-14 21:07 UTC.
Position N 37°58' E 023°36'.

Length 12 m; draft 4 m.

Type: Tanker. MMSI: 240732000.

Date/timePositionNaut miles runAvg speedWind from/ knotsBaromVisibWave heightAir tempDewpointWater temp
2016-Feb-14 20:33N 37°58' E 023°36'0 0.0
2016-Feb-14 19:33N 37°58' E 023°36'2 2.3
2016-Feb-14 18:34N 37°56' E 023°35'1 1.3
2016-Feb-14 17:34N 37°55' E 023°34'2 1.8
2016-Feb-14 16:34N 37°54' E 023°32'0 0.0
2016-Feb-14 15:34N 37°54' E 023°32'2 2.2
2016-Feb-14 14:34N 37°55' E 023°34'7 7.0
2016-Feb-14 13:33N 38°02' E 023°32'0 0.0
2016-Feb-14 12:33N 38°02' E 023°32'0 0.0
2016-Feb-13 16:12N 38°02' E 023°32'0 0.1
2016-Feb-13 15:33N 38°02' E 023°32'6 5.8
2016-Feb-13 14:33N 37°58' E 023°37'0 0.0
2016-Feb-13 13:33N 37°58' E 023°37'4 3.6
2016-Feb-13 12:33N 37°60' E 023°33'3 2.6
2016-Feb-13 11:33N 38°02' E 023°32'0 0.0
2016-Feb-13 10:33N 38°02' E 023°32'0 0.0
2016-Feb-13 09:33N 38°02' E 023°32'0 0.0
2016-Feb-13 08:33N 38°02' E 023°32'0 0.0
2016-Feb-13 07:33N 38°02' E 023°32'0 0.0
2016-Feb-13 06:33N 38°02' E 023°32'3 3.1
2016-Feb-13 05:33N 37°59' E 023°33'3 2.6
2016-Feb-13 04:33N 37°57' E 023°35'0 0.0
2016-Feb-13 03:33N 37°57' E 023°35'0 0.0
2016-Feb-13 02:33N 37°57' E 023°35'0 0.0
2016-Feb-13 01:33N 37°57' E 023°35'0 0.0
2016-Feb-13 00:34N 37°57' E 023°35'0 0.0
2016-Feb-12 23:34N 37°57' E 023°35'0 0.0
2016-Feb-12 22:33N 37°57' E 023°35'2 1.8
2016-Feb-12 21:33N 37°56' E 023°35'2 1.8
2016-Feb-12 20:33N 37°55' E 023°33'0 0.2
2016-Feb-12 19:33N 37°55' E 023°33'0 0.0
2016-Feb-12 18:33N 37°55' E 023°33'0 0.0
2016-Feb-12 17:33N 37°55' E 023°33'0 0.0
2016-Feb-12 16:33N 37°55' E 023°33'0 0.0
2016-Feb-12 15:33N 37°55' E 023°33'0 0.1
2016-Feb-12 14:33N 37°55' E 023°33'3 2.7
2016-Feb-12 13:33N 37°57' E 023°34'0 0.3
2016-Feb-12 12:33N 37°57' E 023°34'5 5.4
2016-Feb-12 11:33N 38°02' E 023°32'0 0.0
2016-Feb-12 10:33N 38°02' E 023°32'0 0.0
2016-Feb-12 09:33N 38°02' E 023°32'0 0.0
2016-Feb-12 08:33N 38°02' E 023°32'0 0.0
2016-Feb-12 07:33N 38°02' E 023°32'0 0.0
2016-Feb-12 06:33N 38°02' E 023°32'0 0.0
2016-Feb-12 05:33N 38°02' E 023°32'0 0.0
2016-Feb-12 04:33N 38°02' E 023°32'0 0.0
2016-Feb-11 10:33N 38°02' E 023°32'0 0.0
2016-Feb-11 09:33N 38°02' E 023°32'0 0.1
2016-Feb-11 08:31N 38°02' E 023°32'0 0.3
2016-Feb-11 07:33N 38°02' E 023°32'0 0.2
2016-Feb-11 06:33N 38°02' E 023°32'0 0.0
2016-Feb-11 05:33N 38°02' E 023°32'0 0.0
2016-Feb-11 04:33N 38°02' E 023°32'0 0.0
2016-Feb-11 03:33N 38°02' E 023°32'0 0.0
2016-Feb-11 02:33N 38°02' E 023°32'0 0.0
2016-Feb-11 01:33N 38°02' E 023°32'0 0.0
2016-Feb-11 00:33N 38°02' E 023°32'0 0.0
2016-Feb-10 23:33N 38°02' E 023°32'2 2.2
2016-Feb-10 22:33N 38°01' E 023°30'8 7.7
2016-Feb-10 21:32N 37°55' E 023°23'6 6.3
2016-Feb-10 20:33N 37°51' E 023°29'0 0.1
2016-Feb-10 19:33N 37°52' E 023°29'0 0.0
2016-Feb-10 18:34N 37°52' E 023°29'0 0.0
2016-Feb-10 17:33N 37°52' E 023°29'0 0.0
2016-Feb-10 16:33N 37°52' E 023°29'0 0.3
2016-Feb-10 15:33N 37°52' E 023°29'5 4.9
2016-Feb-10 14:33N 37°55' E 023°33'0 0.0
2016-Feb-10 13:33N 37°55' E 023°33'0 0.0
2016-Feb-10 12:33N 37°55' E 023°33'4 4.3
2016-Feb-10 11:33N 37°60' E 023°33'3 2.7
2016-Feb-10 10:33N 38°02' E 023°32'0 0.0
2016-Feb-10 09:33N 38°02' E 023°32'0 0.0
2016-Feb-10 08:33N 38°02' E 023°32'0 0.0
2016-Feb-10 07:33N 38°02' E 023°32'0 0.0
2016-Feb-10 06:33N 38°02' E 023°32'0 0.0
2016-Feb-10 05:33N 38°02' E 023°32'0 0.0
2016-Feb-10 04:34N 38°02' E 023°32'0 0.0
2016-Feb-10 03:33N 38°02' E 023°32'0 0.0
2016-Feb-10 02:33N 38°02' E 023°32'0 0.0
2016-Feb-10 01:34N 38°02' E 023°32'0 0.0
2016-Feb-10 00:33N 38°02' E 023°32'0 0.0
2016-Feb-09 20:14N 38°02' E 023°32'0 0.7
2016-Feb-09 19:34N 38°02' E 023°31'1 0.6
2016-Feb-09 18:33N 38°02' E 023°31'0 0.0
2016-Feb-09 17:33N 38°02' E 023°31'0 0.0
2016-Feb-09 16:33N 38°02' E 023°31'0 0.0
2016-Feb-09 15:33N 38°02' E 023°31'0 0.0
2016-Feb-09 14:33N 38°02' E 023°31'0 0.0
2016-Feb-09 13:33N 38°02' E 023°31'0 0.0
2016-Feb-09 12:33N 38°02' E 023°31'0 0.0
2016-Feb-09 11:33N 38°02' E 023°31'0 0.4
2016-Feb-09 10:33N 38°02' E 023°31'1 0.7
2016-Feb-09 09:33N 38°02' E 023°32'0 0.0
2016-Feb-09 08:33N 38°02' E 023°32'0 0.0
2016-Feb-09 07:34N 38°02' E 023°32'0 0.0
2016-Feb-09 06:33N 38°02' E 023°32'0 0.0
2016-Feb-09 05:33N 38°02' E 023°32'0 0.0
2016-Feb-08 12:34N 38°02' E 023°32'0 0.0
2016-Feb-08 11:34N 38°02' E 023°32'0 0.0
2016-Feb-08 10:34N 38°02' E 023°32'0 0.0
2016-Feb-08 09:33N 38°02' E 023°32'0 0.0
2016-Feb-08 08:34N 38°02' E 023°32'0 0.0
2016-Feb-08 07:34N 38°02' E 023°32'0 0.0
2016-Feb-08 06:34N 38°02' E 023°32'0 0.0
2016-Feb-08 05:33N 38°02' E 023°32'0 0.0
2016-Feb-06 19:34N 38°02' E 023°32'6 5.9
2016-Feb-06 18:33N 37°59' E 023°25'7 6.8
2016-Feb-06 17:33N 37°53' E 023°24'6 6.4
2016-Feb-06 16:34N 37°51' E 023°32'0 0.0
2016-Feb-06 15:33N 37°51' E 023°32'0 0.0
2016-Feb-06 14:33N 37°51' E 023°32'0 0.0
2016-Feb-06 13:34N 37°51' E 023°32'2 1.6
2016-Feb-06 12:33N 37°53' E 023°33'8 8.3
2016-Feb-06 11:33N 38°01' E 023°32'1 1.3
2016-Feb-06 10:33N 38°02' E 023°32'0 0.0
2016-Feb-06 09:34N 38°02' E 023°32'0 0.0
2016-Feb-06 08:33N 38°02' E 023°32'0 0.0
2016-Feb-06 07:34N 38°02' E 023°32'0 0.0
2016-Feb-06 06:34N 38°02' E 023°32'0 0.0
2016-Feb-05 17:30N 38°02' E 023°32'1 0.6
2016-Feb-05 16:33N 38°02' E 023°32'6 5.7
2016-Feb-05 15:33N 37°56' E 023°35'3 3.2
2016-Feb-05 14:33N 37°54' E 023°32'0 0.0
2016-Feb-05 13:33N 37°54' E 023°32'0 0.0
2016-Feb-05 12:33N 37°54' E 023°32'0 0.4
2016-Feb-05 11:33N 37°54' E 023°32'2 2.2
2016-Feb-05 10:34N 37°55' E 023°34'2 1.6
2016-Feb-05 09:34N 37°57' E 023°34'0 0.0
2016-Feb-05 08:33N 37°57' E 023°34'0 0.0
2016-Feb-05 07:33N 37°57' E 023°34'0 0.1
2016-Feb-05 06:34N 37°57' E 023°34'3 3.1
2016-Feb-05 05:34N 37°60' E 023°33'2 2.3
2016-Feb-05 04:33N 38°02' E 023°32'0 0.0
2016-Feb-05 03:34N 38°02' E 023°32'  
Track history (hours):
 
Tides and Currents Weather Stations Pressure Air Temp Water Temp Dewpoint Dewpoint Depression Visibility Wind Speed Wind Dir Waves Ship Positions

Aegean Viii

Last reported at 2016-Feb-14 20:33 UTC. Time now 2016-Feb-14 21:07 UTC.
Position N 37°58' E 023°36'.

Length 12 m; draft 4 m.

Type: Tanker. MMSI: 240732000.

Date/timePositionNaut miles runAvg speedWind from/ knotsBaromVisibWave heightAir tempDewpointWater temp
2016-Feb-14 20:33N 37°58' E 023°36'0 0.0
2016-Feb-14 19:33N 37°58' E 023°36'2 2.3
2016-Feb-14 18:34N 37°56' E 023°35'1 1.3
2016-Feb-14 17:34N 37°55' E 023°34'2 1.8
2016-Feb-14 16:34N 37°54' E 023°32'0 0.0
2016-Feb-14 15:34N 37°54' E 023°32'2 2.2
2016-Feb-14 14:34N 37°55' E 023°34'7 7.0
2016-Feb-14 13:33N 38°02' E 023°32'0 0.0
2016-Feb-14 12:33N 38°02' E 023°32'0 0.0
2016-Feb-13 16:12N 38°02' E 023°32'0 0.1
2016-Feb-13 15:33N 38°02' E 023°32'6 5.8
2016-Feb-13 14:33N 37°58' E 023°37'0 0.0
2016-Feb-13 13:33N 37°58' E 023°37'4 3.6
2016-Feb-13 12:33N 37°60' E 023°33'3 2.6
2016-Feb-13 11:33N 38°02' E 023°32'0 0.0
2016-Feb-13 10:33N 38°02' E 023°32'0 0.0
2016-Feb-13 09:33N 38°02' E 023°32'0 0.0
2016-Feb-13 08:33N 38°02' E 023°32'0 0.0
2016-Feb-13 07:33N 38°02' E 023°32'0 0.0
2016-Feb-13 06:33N 38°02' E 023°32'3 3.1
2016-Feb-13 05:33N 37°59' E 023°33'3 2.6
2016-Feb-13 04:33N 37°57' E 023°35'0 0.0
2016-Feb-13 03:33N 37°57' E 023°35'0 0.0
2016-Feb-13 02:33N 37°57' E 023°35'0 0.0
2016-Feb-13 01:33N 37°57' E 023°35'0 0.0
2016-Feb-13 00:34N 37°57' E 023°35'0 0.0
2016-Feb-12 23:34N 37°57' E 023°35'0 0.0
2016-Feb-12 22:33N 37°57' E 023°35'2 1.8
2016-Feb-12 21:33N 37°56' E 023°35'2 1.8
2016-Feb-12 20:33N 37°55' E 023°33'0 0.2
2016-Feb-12 19:33N 37°55' E 023°33'0 0.0
2016-Feb-12 18:33N 37°55' E 023°33'0 0.0
2016-Feb-12 17:33N 37°55' E 023°33'0 0.0
2016-Feb-12 16:33N 37°55' E 023°33'0 0.0
2016-Feb-12 15:33N 37°55' E 023°33'0 0.1
2016-Feb-12 14:33N 37°55' E 023°33'3 2.7
2016-Feb-12 13:33N 37°57' E 023°34'0 0.3
2016-Feb-12 12:33N 37°57' E 023°34'5 5.4
2016-Feb-12 11:33N 38°02' E 023°32'0 0.0
2016-Feb-12 10:33N 38°02' E 023°32'0 0.0
2016-Feb-12 09:33N 38°02' E 023°32'0 0.0
2016-Feb-12 08:33N 38°02' E 023°32'0 0.0
2016-Feb-12 07:33N 38°02' E 023°32'0 0.0
2016-Feb-12 06:33N 38°02' E 023°32'0 0.0
2016-Feb-12 05:33N 38°02' E 023°32'0 0.0
2016-Feb-12 04:33N 38°02' E 023°32'0 0.0
2016-Feb-11 10:33N 38°02' E 023°32'0 0.0
2016-Feb-11 09:33N 38°02' E 023°32'0 0.1
2016-Feb-11 08:31N 38°02' E 023°32'0 0.3
2016-Feb-11 07:33N 38°02' E 023°32'0 0.2
2016-Feb-11 06:33N 38°02' E 023°32'0 0.0
2016-Feb-11 05:33N 38°02' E 023°32'0 0.0
2016-Feb-11 04:33N 38°02' E 023°32'0 0.0
2016-Feb-11 03:33N 38°02' E 023°32'0 0.0
2016-Feb-11 02:33N 38°02' E 023°32'0 0.0
2016-Feb-11 01:33N 38°02' E 023°32'0 0.0
2016-Feb-11 00:33N 38°02' E 023°32'0 0.0
2016-Feb-10 23:33N 38°02' E 023°32'2 2.2
2016-Feb-10 22:33N 38°01' E 023°30'8 7.7
2016-Feb-10 21:32N 37°55' E 023°23'6 6.3
2016-Feb-10 20:33N 37°51' E 023°29'0 0.1
2016-Feb-10 19:33N 37°52' E 023°29'0 0.0
2016-Feb-10 18:34N 37°52' E 023°29'0 0.0
2016-Feb-10 17:33N 37°52' E 023°29'0 0.0
2016-Feb-10 16:33N 37°52' E 023°29'0 0.3
2016-Feb-10 15:33N 37°52' E 023°29'5 4.9
2016-Feb-10 14:33N 37°55' E 023°33'0 0.0
2016-Feb-10 13:33N 37°55' E 023°33'0 0.0
2016-Feb-10 12:33N 37°55' E 023°33'4 4.3
2016-Feb-10 11:33N 37°60' E 023°33'3 2.7
2016-Feb-10 10:33N 38°02' E 023°32'0 0.0
2016-Feb-10 09:33N 38°02' E 023°32'0 0.0
2016-Feb-10 08:33N 38°02' E 023°32'0 0.0
2016-Feb-10 07:33N 38°02' E 023°32'0 0.0
2016-Feb-10 06:33N 38°02' E 023°32'0 0.0
2016-Feb-10 05:33N 38°02' E 023°32'0 0.0
2016-Feb-10 04:34N 38°02' E 023°32'0 0.0
2016-Feb-10 03:33N 38°02' E 023°32'0 0.0
2016-Feb-10 02:33N 38°02' E 023°32'0 0.0
2016-Feb-10 01:34N 38°02' E 023°32'0 0.0
2016-Feb-10 00:33N 38°02' E 023°32'0 0.0
2016-Feb-09 20:14N 38°02' E 023°32'0 0.7
2016-Feb-09 19:34N 38°02' E 023°31'1 0.6
2016-Feb-09 18:33N 38°02' E 023°31'0 0.0
2016-Feb-09 17:33N 38°02' E 023°31'0 0.0
2016-Feb-09 16:33N 38°02' E 023°31'0 0.0
2016-Feb-09 15:33N 38°02' E 023°31'0 0.0
2016-Feb-09 14:33N 38°02' E 023°31'0 0.0
2016-Feb-09 13:33N 38°02' E 023°31'0 0.0
2016-Feb-09 12:33N 38°02' E 023°31'0 0.0
2016-Feb-09 11:33N 38°02' E 023°31'0 0.4
2016-Feb-09 10:33N 38°02' E 023°31'1 0.7
2016-Feb-09 09:33N 38°02' E 023°32'0 0.0
2016-Feb-09 08:33N 38°02' E 023°32'0 0.0
2016-Feb-09 07:34N 38°02' E 023°32'0 0.0
2016-Feb-09 06:33N 38°02' E 023°32'0 0.0
2016-Feb-09 05:33N 38°02' E 023°32'0 0.0
2016-Feb-08 12:34N 38°02' E 023°32'0 0.0
2016-Feb-08 11:34N 38°02' E 023°32'0 0.0
2016-Feb-08 10:34N 38°02' E 023°32'0 0.0
2016-Feb-08 09:33N 38°02' E 023°32'0 0.0
2016-Feb-08 08:34N 38°02' E 023°32'0 0.0
2016-Feb-08 07:34N 38°02' E 023°32'0 0.0
2016-Feb-08 06:34N 38°02' E 023°32'0 0.0
2016-Feb-08 05:33N 38°02' E 023°32'0 0.0
2016-Feb-06 19:34N 38°02' E 023°32'6 5.9
2016-Feb-06 18:33N 37°59' E 023°25'7 6.8
2016-Feb-06 17:33N 37°53' E 023°24'6 6.4
2016-Feb-06 16:34N 37°51' E 023°32'0 0.0
2016-Feb-06 15:33N 37°51' E 023°32'0 0.0
2016-Feb-06 14:33N 37°51' E 023°32'0 0.0
2016-Feb-06 13:34N 37°51' E 023°32'2 1.6
2016-Feb-06 12:33N 37°53' E 023°33'8 8.3
2016-Feb-06 11:33N 38°01' E 023°32'1 1.3
2016-Feb-06 10:33N 38°02' E 023°32'0 0.0
2016-Feb-06 09:34N 38°02' E 023°32'0 0.0
2016-Feb-06 08:33N 38°02' E 023°32'0 0.0
2016-Feb-06 07:34N 38°02' E 023°32'0 0.0
2016-Feb-06 06:34N 38°02' E 023°32'0 0.0
2016-Feb-05 17:30N 38°02' E 023°32'1 0.6
2016-Feb-05 16:33N 38°02' E 023°32'6 5.7
2016-Feb-05 15:33N 37°56' E 023°35'3 3.2
2016-Feb-05 14:33N 37°54' E 023°32'0 0.0
2016-Feb-05 13:33N 37°54' E 023°32'0 0.0
2016-Feb-05 12:33N 37°54' E 023°32'0 0.4
2016-Feb-05 11:33N 37°54' E 023°32'2 2.2
2016-Feb-05 10:34N 37°55' E 023°34'2 1.6
2016-Feb-05 09:34N 37°57' E 023°34'0 0.0
2016-Feb-05 08:33N 37°57' E 023°34'0 0.0
2016-Feb-05 07:33N 37°57' E 023°34'0 0.1
2016-Feb-05 06:34N 37°57' E 023°34'3 3.1
2016-Feb-05 05:34N 37°60' E 023°33'2 2.3
2016-Feb-05 04:33N 38°02' E 023°32'0 0.0
2016-Feb-05 03:34N 38°02' E 023°32'  

Dump ship's entire track history